createdAt,value
2018-11-01T00:02:14.840Z,43.00
2018-11-01T00:12:17.436Z,42.49
2018-11-01T00:22:21.033Z,43.29
2018-11-01T00:32:24.420Z,43.00
2018-11-01T00:42:28.393Z,42.80
2018-11-01T00:52:31.009Z,43.53
2018-11-01T01:02:33.798Z,43.45
2018-11-01T01:12:36.315Z,43.67
2018-11-01T01:22:39.729Z,43.51
2018-11-01T01:32:42.822Z,43.29
2018-11-01T01:42:49.695Z,43.39
2018-11-01T01:52:52.584Z,43.83
2018-11-01T02:02:55.008Z,43.56
2018-11-01T02:12:57.641Z,43.85
2018-11-01T02:23:00.153Z,43.97
2018-11-01T02:33:04.629Z,43.01
2018-11-01T02:43:12.082Z,43.61
2018-11-01T02:53:15.366Z,43.61
2018-11-01T03:03:18.278Z,43.80
2018-11-01T03:13:20.780Z,43.41
2018-11-01T03:23:24.302Z,43.65
2018-11-01T03:33:27.284Z,43.20
2018-11-01T03:43:30.388Z,43.46
2018-11-01T03:53:32.905Z,43.38
2018-11-01T04:03:36.555Z,43.80
2018-11-01T04:13:39.726Z,44.10
2018-11-01T04:23:42.543Z,43.93
2018-11-01T04:33:45.101Z,43.50
2018-11-01T04:43:47.455Z,43.31
2018-11-01T04:53:50.421Z,43.43
2018-11-01T05:03:54.496Z,43.35
2018-11-01T05:13:57.394Z,43.27
2018-11-01T05:24:03.772Z,43.36
2018-11-01T05:34:06.994Z,43.85
2018-11-01T05:44:10.514Z,43.96
2018-11-01T05:54:13.588Z,43.70
2018-11-01T06:04:16.183Z,43.58
2018-11-01T06:14:18.575Z,44.04
2018-11-01T06:24:21.222Z,43.43
2018-11-01T06:34:27.444Z,44.29
2018-11-01T06:44:30.509Z,44.08
2018-11-01T06:54:33.558Z,44.06
2018-11-01T07:04:37.018Z,44.62
2018-11-01T07:14:39.741Z,43.87
2018-11-01T07:24:43.373Z,44.55
2018-11-01T07:34:45.962Z,43.75
2018-11-01T07:44:49.463Z,43.67
2018-11-01T07:54:51.898Z,44.28
2018-11-01T08:04:54.397Z,44.25
2018-11-01T08:14:59.321Z,46.02
2018-11-01T08:25:02.401Z,46.17
2018-11-01T08:35:04.793Z,45.73
2018-11-01T08:45:08.429Z,46.49
2018-11-01T08:55:11.322Z,44.86
2018-11-01T09:05:14.832Z,45.05
2018-11-01T09:15:17.712Z,45.15
2018-11-01T09:25:20.129Z,45.59
2018-11-01T09:35:22.677Z,45.06
2018-11-01T09:45:25.175Z,45.38
2018-11-01T09:55:28.069Z,44.74
2018-11-01T10:05:30.418Z,45.02
2018-11-01T10:15:33.063Z,44.02
2018-11-01T10:25:35.438Z,43.63
2018-11-01T10:35:37.858Z,44.20
2018-11-01T10:45:40.310Z,44.04
2018-11-01T10:55:42.823Z,46.03
2018-11-01T11:05:45.372Z,44.37
2018-11-01T11:15:47.857Z,42.97
2018-11-01T11:25:50.342Z,42.82
2018-11-01T11:35:52.866Z,42.90
2018-11-01T11:45:55.329Z,42.95
2018-11-01T11:55:57.850Z,43.67
2018-11-01T12:06:00.432Z,44.05
2018-11-01T12:16:02.796Z,46.16
2018-11-01T12:26:05.443Z,45.91
2018-11-01T12:36:08.190Z,45.51
2018-11-01T12:46:10.422Z,46.51
2018-11-01T12:56:12.999Z,45.75
2018-11-01T13:06:15.545Z,45.75
2018-11-01T13:16:18.059Z,44.43
2018-11-01T13:26:20.513Z,44.34
2018-11-01T13:36:23.044Z,43.46
2018-11-01T13:46:25.622Z,44.26
2018-11-01T13:56:28.219Z,43.29
2018-11-01T14:06:30.696Z,43.46
2018-11-01T14:16:33.281Z,47.60
2018-11-01T14:26:35.712Z,46.14
2018-11-01T14:36:38.300Z,46.52
2018-11-01T14:46:40.796Z,45.53
2018-11-01T14:56:44.765Z,46.19
2018-11-01T15:06:45.924Z,46.05
2018-11-01T15:16:48.381Z,46.35
2018-11-01T15:26:50.854Z,46.44
2018-11-01T15:36:53.401Z,46.05
2018-11-01T15:46:56.105Z,45.77
2018-11-01T15:56:58.710Z,46.40
2018-11-01T16:07:01.187Z,46.67
2018-11-01T16:17:03.668Z,47.03
2018-11-01T16:27:06.190Z,47.65
2018-11-01T16:37:08.582Z,47.21
2018-11-01T16:47:11.065Z,46.87
2018-11-01T16:57:13.532Z,46.35
2018-11-01T17:07:15.991Z,47.09
2018-11-01T17:17:18.534Z,46.47
2018-11-01T17:27:20.998Z,46.31
2018-11-01T17:37:23.484Z,46.82
2018-11-01T17:47:26.026Z,46.25
2018-11-01T17:57:28.603Z,46.76
2018-11-01T18:07:31.170Z,46.80
2018-11-01T18:17:33.534Z,45.92
2018-11-01T18:27:36.135Z,46.95
2018-11-01T18:37:39.125Z,49.05
2018-11-01T18:47:42.004Z,47.89
2018-11-01T18:57:44.521Z,47.66
2018-11-01T19:07:47.153Z,46.88
2018-11-01T19:17:49.589Z,47.55
2018-11-01T19:27:52.189Z,45.91
2018-11-01T19:37:54.662Z,48.07
2018-11-01T19:47:57.206Z,47.12
2018-11-01T19:57:59.749Z,47.40
2018-11-01T20:08:02.332Z,47.24
2018-11-01T20:18:04.739Z,47.51
2018-11-01T20:28:07.227Z,46.92
2018-11-01T20:38:09.902Z,46.87
2018-11-01T20:48:12.362Z,47.19
2018-11-01T20:58:15.645Z,46.38
2018-11-01T21:08:18.296Z,45.95
2018-11-01T21:18:21.133Z,46.83
2018-11-01T21:28:23.673Z,46.85
2018-11-01T21:38:26.278Z,46.75
2018-11-01T21:48:28.782Z,46.42
2018-11-01T21:58:31.280Z,46.57
2018-11-01T22:08:33.833Z,46.11
2018-11-01T22:18:36.802Z,46.68
2018-11-01T22:28:39.497Z,46.79
2018-11-01T22:38:42.222Z,47.27
2018-11-01T22:48:45.158Z,47.21
2018-11-01T22:58:47.690Z,47.28
2018-11-01T23:08:51.143Z,47.28
2018-11-01T23:18:54.688Z,47.15
2018-11-01T23:28:57.293Z,47.35
2018-11-01T23:39:05.188Z,48.05
2018-11-01T23:49:14.718Z,47.71
2018-11-01T23:59:17.156Z,47.36
